createdAt,value
2023-04-18T00:01:38.460Z,88.72
2023-04-18T00:04:42.011Z,88.21
2023-04-18T00:07:45.344Z,88.88
2023-04-18T00:10:48.178Z,88.43
2023-04-18T00:13:50.911Z,89.23
2023-04-18T00:16:54.353Z,89.12
2023-04-18T00:19:58.481Z,89.03
2023-04-18T00:23:01.985Z,88.92
2023-04-18T00:26:04.738Z,88.95
2023-04-18T00:29:07.587Z,88.76
2023-04-18T00:32:11.886Z,88.52
2023-04-18T00:35:14.634Z,87.68
2023-04-18T00:38:17.373Z,88.14
2023-04-18T00:41:22.275Z,87.50
2023-04-18T00:44:25.233Z,87.75
2023-04-18T00:47:28.165Z,87.69
2023-04-18T00:50:31.843Z,88.44
2023-04-18T00:53:35.148Z,88.37
2023-04-18T00:56:38.080Z,88.56
2023-04-18T00:59:40.969Z,88.98
2023-04-18T01:02:44.323Z,89.12
2023-04-18T01:05:47.300Z,88.90
2023-04-18T01:08:50.158Z,88.83
2023-04-18T01:11:53.880Z,89.33
2023-04-18T01:14:57.378Z,89.35
2023-04-18T01:18:00.347Z,89.23
2023-04-18T01:21:03.204Z,89.13
2023-04-18T01:24:15.376Z,89.14
2023-04-18T01:27:18.401Z,88.90
2023-04-18T01:30:21.477Z,89.28
2023-04-18T01:33:24.317Z,89.02
2023-04-18T01:36:27.661Z,89.27
2023-04-18T01:39:30.600Z,89.00
2023-04-18T01:42:33.634Z,88.86
2023-04-18T01:45:36.470Z,88.77
2023-04-18T01:48:39.509Z,89.11
2023-04-18T01:51:43.301Z,89.57
2023-04-18T01:54:46.086Z,89.27
2023-04-18T01:57:50.877Z,89.19
2023-04-18T02:00:57.774Z,89.22
2023-04-18T02:04:00.558Z,89.32
2023-04-18T02:07:03.540Z,89.53
2023-04-18T02:10:06.892Z,89.28
2023-04-18T02:13:09.900Z,89.51
2023-04-18T02:16:13.874Z,89.86
2023-04-18T02:19:19.365Z,89.86
2023-04-18T02:22:22.535Z,89.32
2023-04-18T02:25:27.789Z,89.08
2023-04-18T02:28:30.945Z,89.27
2023-04-18T02:31:33.810Z,88.65
2023-04-18T02:34:38.058Z,89.84
2023-04-18T02:37:40.868Z,89.77
2023-04-18T02:40:43.592Z,89.99
2023-04-18T02:43:46.504Z,89.77
2023-04-18T02:46:51.340Z,89.65
2023-04-18T02:49:54.395Z,89.74
2023-04-18T02:52:57.158Z,89.67
2023-04-18T02:56:06.408Z,89.18
2023-04-18T02:59:29.540Z,89.47
2023-04-18T03:02:53.507Z,89.44
2023-04-18T03:06:09.776Z,89.33
2023-04-18T03:09:12.888Z,89.09
2023-04-18T03:12:21.280Z,88.98
2023-04-18T03:15:24.083Z,89.43
2023-04-18T03:18:28.667Z,90.58
2023-04-18T03:21:34.148Z,91.63
2023-04-18T03:24:37.662Z,92.00
2023-04-18T03:27:43.731Z,91.36
2023-04-18T03:30:48.882Z,91.26
2023-04-18T03:33:52.386Z,91.95
2023-04-18T03:36:56.832Z,92.06
2023-04-18T03:40:00.546Z,91.33
2023-04-18T03:43:05.642Z,91.12
2023-04-18T03:46:08.517Z,90.71
2023-04-18T03:49:12.800Z,90.33
2023-04-18T03:52:16.198Z,90.02
2023-04-18T03:55:19.873Z,89.60
2023-04-18T03:58:23.883Z,89.36
2023-04-18T04:01:28.058Z,89.44
2023-04-18T04:04:31.049Z,89.08
2023-04-18T04:07:35.103Z,88.98
2023-04-18T04:10:37.946Z,88.83
2023-04-18T04:13:41.156Z,89.02
2023-04-18T04:16:44.774Z,88.85
2023-04-18T04:19:51.505Z,89.44
2023-04-18T04:22:57.002Z,89.64
2023-04-18T04:26:04.350Z,89.43
2023-04-18T04:29:16.483Z,89.16
2023-04-18T04:32:27.625Z,88.94
2023-04-18T04:35:32.271Z,89.27
2023-04-18T04:38:38.515Z,88.89
2023-04-18T04:41:42.190Z,89.33
2023-04-18T04:44:46.737Z,89.38
2023-04-18T04:47:51.404Z,89.22
2023-04-18T04:50:58.976Z,89.16
2023-04-18T04:54:02.282Z,88.91
2023-04-18T04:57:05.535Z,88.95
2023-04-18T05:00:09.174Z,89.24
2023-04-18T05:03:12.441Z,89.18
2023-04-18T05:06:20.602Z,87.10
2023-04-18T05:09:23.360Z,87.17
2023-04-18T05:12:26.902Z,86.83
2023-04-18T05:15:29.997Z,86.43
2023-04-18T05:18:34.937Z,85.90
2023-04-18T05:21:38.865Z,85.18
2023-04-18T05:24:43.598Z,85.92
2023-04-18T05:27:47.285Z,85.33
2023-04-18T05:30:50.079Z,85.42
2023-04-18T05:33:52.897Z,84.11
2023-04-18T05:36:55.655Z,83.88
2023-04-18T05:40:00.596Z,83.77
2023-04-18T05:43:04.172Z,83.45
2023-04-18T05:46:09.566Z,83.23
2023-04-18T05:49:13.235Z,82.66
2023-04-18T05:52:16.339Z,82.91
2023-04-18T05:55:19.216Z,83.03
2023-04-18T05:58:22.021Z,82.73
2023-04-18T06:01:25.433Z,82.12
2023-04-18T06:04:28.662Z,82.24
2023-04-18T06:07:31.604Z,81.88
2023-04-18T06:10:34.430Z,81.60
2023-04-18T06:13:37.586Z,82.87
2023-04-18T06:16:40.506Z,81.71
2023-04-18T06:19:43.331Z,81.30
2023-04-18T06:22:46.089Z,80.79
2023-04-18T06:25:48.981Z,79.87
2023-04-18T06:28:52.045Z,80.25
2023-04-18T06:31:54.900Z,80.17
2023-04-18T06:34:57.864Z,80.27
2023-04-18T06:38:00.659Z,80.48
2023-04-18T06:41:03.480Z,80.18
2023-04-18T06:44:08.007Z,79.59
2023-04-18T06:47:11.723Z,79.22
2023-04-18T06:50:18.207Z,78.70
2023-04-18T06:53:21.156Z,77.61
2023-04-18T06:56:24.078Z,77.63
2023-04-18T06:59:27.402Z,77.29
2023-04-18T07:02:30.327Z,77.50
2023-04-18T07:05:33.459Z,77.50
2023-04-18T07:08:36.928Z,77.45
2023-04-18T07:11:40.772Z,76.78
2023-04-18T07:14:43.560Z,76.35
2023-04-18T07:17:46.437Z,75.88
2023-04-18T07:20:49.273Z,76.32
2023-04-18T07:23:52.158Z,74.96
2023-04-18T07:26:55.258Z,75.42
2023-04-18T07:29:58.172Z,75.53
2023-04-18T07:33:01.939Z,75.40
2023-04-18T07:36:05.485Z,74.94
2023-04-18T07:39:08.367Z,74.78
2023-04-18T07:42:11.532Z,73.36
2023-04-18T07:45:16.161Z,70.04
2023-04-18T07:48:22.296Z,69.23
2023-04-18T07:51:31.464Z,66.76
2023-04-18T07:54:34.510Z,66.89
2023-04-18T07:57:37.288Z,64.90
2023-04-18T08:00:42.586Z,62.84
2023-04-18T08:03:47.598Z,65.94
2023-04-18T08:06:50.371Z,65.22
2023-04-18T08:09:53.213Z,65.86
2023-04-18T08:12:56.582Z,67.28
2023-04-18T08:16:00.117Z,66.09
2023-04-18T08:19:03.353Z,68.03
2023-04-18T08:22:10.764Z,66.85
2023-04-18T08:25:13.740Z,66.53
2023-04-18T08:28:16.526Z,67.42
2023-04-18T08:31:19.379Z,65.74
2023-04-18T08:34:22.836Z,64.43
2023-04-18T08:37:27.867Z,65.92
2023-04-18T08:40:30.702Z,65.22
2023-04-18T08:43:33.555Z,63.80
2023-04-18T08:46:37.320Z,65.03
2023-04-18T08:49:40.515Z,64.75
2023-04-18T08:52:49.900Z,64.16
2023-04-18T08:55:57.396Z,63.64
2023-04-18T08:59:01.419Z,66.03
2023-04-18T09:02:09.056Z,66.45
2023-04-18T09:05:19.083Z,66.18
2023-04-18T09:08:24.592Z,65.94
2023-04-18T09:11:31.722Z,66.52
2023-04-18T09:14:42.976Z,67.15
2023-04-18T09:17:52.672Z,66.69
2023-04-18T09:20:56.900Z,66.33
2023-04-18T09:24:29.502Z,65.68
2023-04-18T09:27:34.827Z,64.32
2023-04-18T09:30:40.141Z,63.28
2023-04-18T09:33:54.264Z,64.79
2023-04-18T09:37:15.201Z,64.08
2023-04-18T09:40:19.458Z,65.44
2023-04-18T09:43:22.235Z,65.08
2023-04-18T09:46:27.534Z,66.27
2023-04-18T09:49:30.427Z,64.58
2023-04-18T09:52:49.336Z,64.48
2023-04-18T09:55:57.773Z,66.66
2023-04-18T09:59:09.591Z,67.08
2023-04-18T10:02:21.030Z,69.16
2023-04-18T10:05:35.936Z,67.96
2023-04-18T10:08:40.214Z,69.67
2023-04-18T10:11:44.454Z,70.01
2023-04-18T10:14:48.343Z,71.17
2023-04-18T10:21:04.406Z,73.46
2023-04-18T10:24:07.532Z,74.28
2023-04-18T10:27:10.319Z,75.12
2023-04-18T10:30:13.695Z,74.87
2023-04-18T10:33:40.983Z,76.46
2023-04-18T10:37:04.549Z,76.89
2023-04-18T10:40:10.400Z,77.91
2023-04-18T10:43:13.454Z,78.47
2023-04-18T10:46:30.504Z,79.37
2023-04-18T11:07:39.788Z,80.87
2023-04-18T11:10:42.541Z,81.44
2023-04-18T11:13:58.751Z,81.80
2023-04-18T11:17:25.204Z,79.28
2023-04-18T11:20:29.421Z,79.92
2023-04-18T11:23:32.220Z,79.02
2023-04-18T11:26:38.404Z,78.48
2023-04-18T11:29:41.160Z,77.57
2023-04-18T11:32:44.682Z,77.45
2023-04-18T11:35:47.589Z,75.23
2023-04-18T11:38:50.335Z,76.16
2023-04-18T11:41:53.314Z,74.91
2023-04-18T11:44:56.163Z,74.99
2023-04-18T11:48:00.177Z,76.13
2023-04-18T11:51:03.049Z,75.89
2023-04-18T11:54:05.943Z,77.26
2023-04-18T11:57:28.165Z,77.93
2023-04-18T12:00:36.038Z,78.03
2023-04-18T12:03:39.326Z,77.79
2023-04-18T12:06:49.143Z,76.44
2023-04-18T12:09:52.685Z,74.59
2023-04-18T12:13:04.021Z,74.60
2023-04-18T12:16:07.880Z,70.84
2023-04-18T12:19:11.428Z,72.37
2023-04-18T12:22:17.006Z,72.09
2023-04-18T12:25:27.274Z,72.99
2023-04-18T12:28:31.356Z,72.41
2023-04-18T12:31:34.129Z,70.75
2023-04-18T12:34:36.934Z,69.97
2023-04-18T12:37:39.638Z,68.60
2023-04-18T12:40:42.455Z,69.97
2023-04-18T12:43:45.545Z,70.73
2023-04-18T12:46:48.668Z,71.43
2023-04-18T12:49:51.688Z,71.55
2023-04-18T12:53:02.332Z,75.08
2023-04-18T12:56:05.480Z,69.93
2023-04-18T12:59:08.280Z,68.53
2023-04-18T13:02:11.585Z,67.79
2023-04-18T13:05:16.169Z,72.41
2023-04-18T13:08:19.204Z,71.26
2023-04-18T13:11:22.704Z,70.17
2023-04-18T13:14:26.638Z,68.22
2023-04-18T13:17:30.699Z,68.48
2023-04-18T13:20:35.440Z,73.91
2023-04-18T13:23:38.200Z,74.67
2023-04-18T13:26:40.977Z,74.79
2023-04-18T13:29:44.562Z,78.83
2023-04-18T13:32:47.492Z,79.00
2023-04-18T13:35:50.305Z,78.10
2023-04-18T13:38:53.112Z,78.76
2023-04-18T13:41:55.933Z,80.66
2023-04-18T13:45:00.045Z,80.70
2023-04-18T13:48:02.805Z,81.92
2023-04-18T13:51:06.090Z,81.65
2023-04-18T13:54:09.041Z,78.70
2023-04-18T13:57:12.226Z,74.78
2023-04-18T14:00:15.690Z,75.66
2023-04-18T14:03:18.682Z,74.24
2023-04-18T14:06:21.524Z,76.70
2023-04-18T14:09:24.213Z,77.81
2023-04-18T14:12:27.420Z,78.29
2023-04-18T14:15:30.830Z,77.92
2023-04-18T14:18:33.645Z,79.38
2023-04-18T14:21:36.861Z,79.37
2023-04-18T14:24:39.942Z,77.08
2023-04-18T14:27:47.703Z,79.01
2023-04-18T14:30:51.933Z,77.17
2023-04-18T14:33:54.660Z,79.29
2023-04-18T14:36:57.376Z,77.26
2023-04-18T14:40:00.045Z,77.39
2023-04-18T14:43:02.839Z,76.26
2023-04-18T14:46:12.256Z,76.23
2023-04-18T14:49:15.175Z,76.50
2023-04-18T14:52:18.066Z,76.09
2023-04-18T14:55:20.835Z,75.74
2023-04-18T14:58:23.610Z,75.87
2023-04-18T15:01:26.601Z,74.18
2023-04-18T15:04:29.536Z,74.98
2023-04-18T15:07:32.342Z,75.13
2023-04-18T15:10:35.993Z,75.95
2023-04-18T15:13:38.812Z,77.77
2023-04-18T15:16:41.637Z,79.75
2023-04-18T15:19:44.758Z,78.63
2023-04-18T15:22:47.616Z,79.92
2023-04-18T15:25:50.345Z,79.08
2023-04-18T15:28:54.662Z,79.48
2023-04-18T15:31:57.391Z,78.94
2023-04-18T15:35:00.172Z,78.11
2023-04-18T15:38:03.305Z,78.25
2023-04-18T15:41:06.257Z,79.27
2023-04-18T15:44:09.294Z,79.90
2023-04-18T15:47:12.073Z,79.82
2023-04-18T15:50:16.515Z,79.54
2023-04-18T15:53:19.650Z,78.71
2023-04-18T15:56:25.198Z,80.16
2023-04-18T15:59:28.060Z,78.13
2023-04-18T16:02:31.528Z,78.71
2023-04-18T16:05:34.368Z,79.71
2023-04-18T16:08:38.214Z,79.05
2023-04-18T16:11:41.260Z,79.94
2023-04-18T16:14:44.357Z,80.48
2023-04-18T16:17:47.067Z,80.49
2023-04-18T16:20:49.930Z,81.15
2023-04-18T16:23:52.778Z,81.03
2023-04-18T16:26:55.760Z,80.87
2023-04-18T16:29:58.545Z,81.12
2023-04-18T16:33:01.444Z,80.78
2023-04-18T16:36:05.216Z,80.67
2023-04-18T16:39:08.000Z,79.92
2023-04-18T16:45:13.724Z,80.39
2023-04-18T16:48:16.549Z,81.05
2023-04-18T16:51:19.352Z,81.68
2023-04-18T16:54:22.147Z,81.60
2023-04-18T16:57:24.905Z,81.28
2023-04-18T17:00:27.700Z,81.60
2023-04-18T17:03:30.859Z,81.74
2023-04-18T17:06:34.092Z,82.30
2023-04-18T17:09:36.972Z,82.65
2023-04-18T17:12:39.897Z,82.33
2023-04-18T17:15:43.125Z,82.73
2023-04-18T17:18:46.067Z,82.67
2023-04-18T17:21:51.034Z,83.38
2023-04-18T17:24:54.245Z,83.22
2023-04-18T17:27:57.425Z,83.93
2023-04-18T17:31:02.013Z,83.47
2023-04-18T17:34:04.906Z,83.92
2023-04-18T17:37:08.160Z,84.35
2023-04-18T17:40:12.109Z,84.59
2023-04-18T17:43:15.027Z,84.17
2023-04-18T17:46:18.319Z,84.15
2023-04-18T17:49:21.878Z,83.52
2023-04-18T17:52:24.813Z,83.36
2023-04-18T17:55:28.024Z,83.85
2023-04-18T17:58:31.267Z,84.12
2023-04-18T18:01:34.902Z,84.34
2023-04-18T18:04:39.227Z,84.65
2023-04-18T18:07:48.238Z,84.30
2023-04-18T18:10:53.260Z,84.65
2023-04-18T18:13:57.583Z,84.72
2023-04-18T18:17:00.869Z,84.58
2023-04-18T18:20:08.758Z,84.60
2023-04-18T18:23:11.827Z,84.29
2023-04-18T18:26:15.186Z,84.23
2023-04-18T18:29:19.427Z,83.22
2023-04-18T18:32:22.462Z,82.87
2023-04-18T18:35:25.550Z,83.88
2023-04-18T18:38:28.661Z,83.92
2023-04-18T18:41:31.610Z,84.08
2023-04-18T18:44:35.796Z,84.36
2023-04-18T18:47:40.094Z,84.60
2023-04-18T18:50:46.686Z,84.42
2023-04-18T18:53:50.534Z,84.61
2023-04-18T18:56:53.674Z,84.88
2023-04-18T18:59:56.445Z,85.18
2023-04-18T19:02:59.711Z,85.24
2023-04-18T19:06:03.995Z,85.07
2023-04-18T19:09:07.333Z,84.77
2023-04-18T19:12:10.802Z,85.69
2023-04-18T19:15:13.940Z,85.82
2023-04-18T19:18:19.601Z,85.63
2023-04-18T19:21:24.040Z,86.41
2023-04-18T19:24:27.249Z,86.47
2023-04-18T19:27:30.377Z,86.79
2023-04-18T19:30:33.527Z,86.56
2023-04-18T19:33:37.586Z,85.92
2023-04-18T19:36:40.662Z,85.50
2023-04-18T19:39:43.417Z,85.07
2023-04-18T19:42:46.758Z,84.97
2023-04-18T19:45:50.965Z,85.61
2023-04-18T19:48:54.538Z,85.49
2023-04-18T19:51:57.618Z,85.35
2023-04-18T19:55:00.796Z,85.42
2023-04-18T19:58:05.326Z,85.39
2023-04-18T20:01:10.167Z,85.62
2023-04-18T20:04:13.562Z,85.18
2023-04-18T20:07:16.491Z,85.02
2023-04-18T20:10:23.767Z,85.37
2023-04-18T20:13:26.780Z,85.04
2023-04-18T20:16:29.530Z,85.46
2023-04-18T20:19:32.631Z,85.27
2023-04-18T20:22:36.154Z,85.79
2023-04-18T20:25:39.162Z,86.06
2023-04-18T20:28:42.158Z,86.16
2023-04-18T20:31:45.343Z,86.18
2023-04-18T20:34:48.723Z,86.38
2023-04-18T20:37:51.860Z,86.36
2023-04-18T20:40:54.813Z,86.14
2023-04-18T20:43:58.789Z,86.19
2023-04-18T20:47:02.402Z,86.15
2023-04-18T20:50:05.724Z,85.96
2023-04-18T20:53:08.588Z,85.60
2023-04-18T20:56:11.418Z,85.50
2023-04-18T20:59:14.157Z,85.84
2023-04-18T21:02:17.487Z,86.06
2023-04-18T21:05:20.291Z,86.10
2023-04-18T21:08:23.075Z,86.12
2023-04-18T21:11:26.103Z,86.39
2023-04-18T21:14:29.082Z,86.26
2023-04-18T21:17:31.833Z,86.19
2023-04-18T21:20:36.575Z,84.02
2023-04-18T21:23:45.143Z,83.64
2023-04-18T21:26:47.972Z,83.18
2023-04-18T21:29:50.776Z,82.60
2023-04-18T21:32:53.676Z,82.33
2023-04-18T21:35:56.535Z,82.60
2023-04-18T21:39:01.127Z,82.90
2023-04-18T21:42:04.249Z,83.04
2023-04-18T21:45:07.678Z,82.70
2023-04-18T21:48:10.768Z,82.86
2023-04-18T21:51:15.657Z,82.23
2023-04-18T21:54:18.462Z,82.21
2023-04-18T21:57:21.366Z,82.39
2023-04-18T22:00:24.438Z,82.33
2023-04-18T22:03:31.779Z,82.05
2023-04-18T22:06:34.945Z,81.55
2023-04-18T22:09:37.908Z,81.27
2023-04-18T22:12:40.802Z,80.67
2023-04-18T22:15:43.478Z,81.00
2023-04-18T22:18:46.322Z,80.82
2023-04-18T22:21:49.048Z,80.60
2023-04-18T22:24:51.786Z,80.33
2023-04-18T22:27:54.812Z,79.91
2023-04-18T22:30:57.551Z,79.08
2023-04-18T22:34:00.459Z,78.44
2023-04-18T22:37:03.176Z,79.21
2023-04-18T22:40:06.817Z,80.16
2023-04-18T22:43:13.917Z,80.43
2023-04-18T22:46:16.653Z,80.26
2023-04-18T22:49:19.391Z,80.20
2023-04-18T22:52:24.917Z,78.91
2023-04-18T22:55:27.596Z,78.85
2023-04-18T22:58:31.476Z,79.44
2023-04-18T23:01:34.260Z,79.51
2023-04-18T23:04:37.193Z,79.20
2023-04-18T23:07:39.986Z,79.24
2023-04-18T23:10:42.789Z,79.40
2023-04-18T23:13:45.629Z,79.24
2023-04-18T23:16:48.738Z,79.57
2023-04-18T23:19:51.568Z,79.30
2023-04-18T23:22:55.538Z,78.96
2023-04-18T23:25:58.421Z,78.52
2023-04-18T23:29:01.594Z,77.13
2023-04-18T23:32:05.056Z,77.73
2023-04-18T23:35:08.081Z,77.56
2023-04-18T23:38:11.161Z,77.40
2023-04-18T23:41:13.964Z,77.52
2023-04-18T23:44:16.905Z,77.90
2023-04-18T23:47:19.736Z,78.11
2023-04-18T23:50:22.835Z,77.21
2023-04-18T23:53:25.755Z,76.98
2023-04-18T23:56:29.826Z,77.22
2023-04-18T23:59:32.490Z,76.57
